createdAt,value
2022-09-07T00:00:24.557Z,10.7
2022-09-07T00:02:28.422Z,10.3
2022-09-07T00:06:36.082Z,8.4
2022-09-07T00:08:43.219Z,7.6
2022-09-07T00:10:47.054Z,7.1
2022-09-07T00:12:50.862Z,5.7
2022-09-07T00:13:54.454Z,6.2
2022-09-07T00:20:05.957Z,4.7
2022-09-07T00:24:18.498Z,5.3
2022-09-07T00:26:22.350Z,5
2022-09-07T00:28:26.219Z,3.9
2022-09-07T00:30:30.030Z,4.5
2022-09-07T00:32:33.891Z,4.1
2022-09-07T00:34:37.746Z,3.7
2022-09-07T00:36:44.850Z,4.8
2022-09-07T00:38:48.744Z,4.2
2022-09-07T00:40:52.567Z,3.8
2022-09-07T00:42:56.399Z,3.7
2022-09-07T00:45:00.233Z,3.6
2022-09-07T00:47:04.098Z,2.8
2022-09-07T00:49:07.939Z,3.4
2022-09-07T00:51:15.110Z,3.8
2022-09-07T00:53:18.929Z,3.1
2022-09-07T00:55:22.779Z,3.1
2022-09-07T00:57:26.637Z,3
2022-09-07T00:59:30.495Z,3.2
2022-09-07T01:01:34.547Z,3.2
2022-09-07T01:03:38.221Z,2.4
2022-09-07T01:05:45.318Z,3.3
2022-09-07T01:07:49.173Z,3.2
2022-09-07T01:09:53.050Z,3.1
2022-09-07T01:10:56.605Z,3.3
2022-09-07T01:13:00.501Z,2.9
2022-09-07T01:17:08.178Z,3.1
2022-09-07T01:19:15.329Z,3.3
2022-09-07T01:21:19.185Z,2.9
2022-09-07T01:25:26.885Z,3.3
2022-09-07T01:27:30.749Z,3.4
2022-09-07T01:31:38.425Z,3.2
2022-09-07T01:33:45.558Z,3.5
2022-09-07T01:37:56.876Z,3.7
2022-09-07T01:39:57.211Z,4.4
2022-09-07T01:44:04.857Z,4.3
2022-09-07T01:48:15.815Z,4.2
2022-09-07T01:50:19.659Z,3.5
2022-09-07T01:52:23.498Z,3.8
2022-09-07T01:54:27.325Z,3.6
2022-09-07T01:58:35.070Z,4
2022-09-07T02:02:46.175Z,4.7
2022-09-07T02:04:49.893Z,4
2022-09-07T02:06:53.751Z,3.8
2022-09-07T02:09:18.193Z,4.3
2022-09-07T02:11:22.041Z,4.8
2022-09-07T02:13:25.905Z,4.4
2022-09-07T02:17:36.893Z,4.8
2022-09-07T02:19:40.749Z,3.8
2022-09-07T02:23:48.465Z,4.7
2022-09-07T02:32:07.153Z,4.7
2022-09-07T02:34:11.009Z,4.5
2022-09-07T02:36:14.871Z,4.4
2022-09-07T02:38:18.720Z,5
2022-09-07T02:42:26.420Z,4.4
2022-09-07T02:44:33.570Z,4.6
2022-09-07T02:46:37.437Z,4.6
2022-09-07T02:48:41.257Z,4.4
2022-09-07T02:50:45.125Z,4.4
2022-09-07T02:52:48.958Z,4.7
2022-09-07T02:54:52.815Z,4.3
2022-09-07T02:56:56.664Z,4.1
2022-09-07T02:59:03.729Z,5
2022-09-07T03:01:07.659Z,4.5
2022-09-07T03:03:11.431Z,4.4
2022-09-07T03:04:14.978Z,4.5
2022-09-07T03:06:18.830Z,4
2022-09-07T03:08:22.665Z,4.4
2022-09-07T03:10:26.509Z,3.7
2022-09-07T03:12:33.626Z,5.3
2022-09-07T03:18:45.141Z,4.4
2022-09-07T03:20:48.997Z,4.8
2022-09-07T03:22:52.832Z,5.6
2022-09-07T03:27:03.792Z,4.8
2022-09-07T03:29:07.663Z,5.5
2022-09-07T03:33:15.333Z,4.5
2022-09-07T03:35:19.181Z,4.5
2022-09-07T03:37:23.058Z,4.4
2022-09-07T03:39:27.018Z,4.5
2022-09-07T03:41:34.009Z,6.3
2022-09-07T03:43:37.847Z,4.7
2022-09-07T03:45:41.755Z,5.2
2022-09-07T03:47:45.575Z,4.6
2022-09-07T03:49:49.430Z,5.5
2022-09-07T03:51:53.272Z,4.7
2022-09-07T03:53:57.146Z,4.7
2022-09-07T03:56:04.271Z,5
2022-09-07T04:00:11.958Z,5.4
2022-09-07T04:01:15.572Z,5.3
2022-09-07T04:05:23.214Z,5.8
2022-09-07T04:07:27.068Z,5.6
2022-09-07T04:09:34.181Z,6
2022-09-07T04:11:38.004Z,5.4
2022-09-07T04:13:41.859Z,5.7
2022-09-07T04:15:45.717Z,5.3
2022-09-07T04:17:49.548Z,5.8
2022-09-07T04:19:53.400Z,6.1
2022-09-07T04:24:04.386Z,5.9
2022-09-07T04:26:08.048Z,5.3
2022-09-07T04:30:15.730Z,5.8
2022-09-07T04:32:19.580Z,5.9
2022-09-07T04:34:23.416Z,6.3
2022-09-07T04:36:27.279Z,6.4
2022-09-07T04:38:34.383Z,7.2
2022-09-07T04:40:41.661Z,7
2022-09-07T04:42:42.107Z,6.7
2022-09-07T04:44:45.921Z,6.7
2022-09-07T04:46:49.793Z,7.8
2022-09-07T04:48:53.620Z,6.9
2022-09-07T04:50:57.451Z,7.8
2022-09-07T04:53:04.601Z,7.8
2022-09-07T04:55:08.474Z,7.4
2022-09-07T04:57:12.311Z,7.3
2022-09-07T04:58:15.864Z,7.9
2022-09-07T05:02:23.653Z,7.5
2022-09-07T05:06:34.548Z,8.7
2022-09-07T05:08:38.398Z,8
2022-09-07T05:10:42.222Z,8
2022-09-07T05:14:49.950Z,8.5
2022-09-07T05:16:53.885Z,8
2022-09-07T05:18:57.657Z,7.4
2022-09-07T05:21:04.783Z,7.5
2022-09-07T05:23:08.648Z,7.2
2022-09-07T05:25:12.502Z,8
2022-09-07T05:27:16.318Z,8.4
2022-09-07T05:31:24.038Z,7.6
2022-09-07T05:35:34.993Z,9.1
2022-09-07T05:37:38.847Z,8
2022-09-07T05:39:42.740Z,11.5
2022-09-07T18:50:43.596Z,3.8
2022-09-07T18:55:12.277Z,3.6
2022-09-07T18:57:16.024Z,4.2
2022-09-07T18:59:23.093Z,4.5
2022-09-07T19:11:45.718Z,4.3
2022-09-07T19:13:52.830Z,4
2022-09-07T19:26:15.464Z,4.7
2022-09-07T19:32:30.117Z,4.9
2022-09-07T19:36:37.696Z,4.9
2022-09-07T19:44:56.222Z,5.2
2022-09-07T19:47:00.075Z,4.9
2022-09-07T19:48:03.537Z,5.2
2022-09-07T19:50:07.355Z,5
2022-09-07T19:54:14.961Z,4.5
2022-09-07T19:56:22.056Z,5.5
2022-09-07T19:58:25.877Z,5.7
2022-09-07T20:00:29.797Z,6.5
2022-09-07T20:02:33.517Z,6.4
2022-09-07T20:04:37.313Z,6.1
2022-09-07T20:06:41.133Z,6.5
2022-09-07T20:08:44.978Z,6.4
2022-09-07T20:10:52.080Z,6.3
2022-09-07T20:12:55.905Z,7.1
2022-09-07T20:14:59.667Z,7.2
2022-09-07T20:17:03.482Z,6.7
2022-09-07T20:19:07.325Z,7.1
2022-09-07T20:21:11.140Z,7.2
2022-09-07T20:23:14.958Z,7.1
2022-09-07T20:25:22.062Z,7.3
2022-09-07T20:27:25.881Z,7.7
2022-09-07T20:29:29.708Z,7.6
2022-09-07T20:31:33.536Z,7.9
2022-09-07T20:41:55.918Z,9.6
2022-09-07T20:45:03.278Z,8.5
2022-09-07T20:47:07.137Z,9.1
2022-09-07T20:59:33.409Z,9
2022-09-07T21:01:37.330Z,9
2022-09-07T21:05:44.915Z,9.1
2022-09-07T21:09:55.842Z,10
2022-09-07T21:11:59.670Z,10
2022-09-07T21:14:03.512Z,10.4
2022-09-07T21:18:11.197Z,10.2
2022-09-07T21:20:15.020Z,9.9
2022-09-07T21:24:25.970Z,10.8
2022-09-07T21:26:29.820Z,10
2022-09-07T21:28:33.630Z,10.7
2022-09-07T21:30:37.427Z,9.5
2022-09-07T21:32:41.284Z,9.9
2022-09-07T21:34:45.126Z,9.6
2022-09-07T21:36:52.230Z,10.5
2022-09-07T21:38:56.055Z,11.3
2022-09-07T21:42:03.474Z,11.7
2022-09-07T21:48:15.028Z,10.3
2022-09-07T21:50:22.168Z,11.5
2022-09-07T21:52:26.021Z,11.9
2022-09-07T21:54:29.858Z,11
2022-09-07T21:56:33.720Z,11.3
2022-09-07T21:58:37.564Z,11.8
2022-09-07T22:00:41.408Z,11.8
2022-09-07T22:02:45.252Z,12.1
2022-09-07T22:11:03.874Z,14.6
2022-09-07T22:13:07.729Z,15.2
2022-09-07T22:17:15.439Z,15.1
2022-09-07T22:19:22.543Z,17.4
2022-09-07T22:21:26.395Z,18
2022-09-07T22:23:30.317Z,18.2
2022-09-07T22:25:34.080Z,18.3
2022-09-07T22:27:37.914Z,18.8
2022-09-07T22:29:41.789Z,19
2022-09-07T22:31:45.705Z,19
2022-09-07T22:33:52.747Z,19.5
2022-09-07T22:35:56.565Z,19
2022-09-07T22:38:00.412Z,19.1
2022-09-07T22:40:25.055Z,19.9
2022-09-07T22:42:28.914Z,17.4
2022-09-07T22:44:32.754Z,18.4
2022-09-07T22:48:43.701Z,19.8
2022-09-07T22:50:48.200Z,19.1
2022-09-07T22:52:51.423Z,17.7
2022-09-07T22:54:55.280Z,18.6
2022-09-07T22:56:59.108Z,17.3
2022-09-07T22:59:02.955Z,18.2
2022-09-07T23:01:10.112Z,19.1
2022-09-07T23:03:13.975Z,18.9
2022-09-07T23:05:17.780Z,17.7
2022-09-07T23:07:21.620Z,17.7
2022-09-07T23:09:25.466Z,15.7
2022-09-07T23:11:29.294Z,18.7
2022-09-07T23:13:33.357Z,16.9
2022-09-07T23:17:44.113Z,17.7
2022-09-07T23:19:47.942Z,18.5
2022-09-07T23:21:51.786Z,18.3
2022-09-07T23:23:55.639Z,17.9
2022-09-07T23:25:59.500Z,18.4
2022-09-07T23:28:03.339Z,16.7
2022-09-07T23:30:10.518Z,18.3
2022-09-07T23:32:14.305Z,17.4
2022-09-07T23:34:18.140Z,17.7
2022-09-07T23:45:44.211Z,17.9
2022-09-07T23:51:55.750Z,17
2022-09-07T23:58:10.574Z,17.2
